sensor_id;sensor_type;location;lat;lon;timestamp;P1;durP1;ratioP1;P2;durP2;ratioP2
14272;SDS011;7220;49.450;11.052;2023-03-01T20:31:36;23.30;;;18.08;;
14272;SDS011;7220;49.450;11.052;2023-03-01T20:35:41;27.27;;;19.38;;
14272;SDS011;7220;49.450;11.052;2023-03-01T20:39:42;27.67;;;17.92;;
14272;SDS011;7220;49.450;11.052;2023-03-01T20:43:42;24.42;;;16.77;;
14272;SDS011;7220;49.450;11.052;2023-03-01T20:47:43;24.85;;;16.88;;
14272;SDS011;7220;49.450;11.052;2023-03-01T20:51:43;22.92;;;17.65;;
14272;SDS011;7220;49.450;11.052;2023-03-01T20:55:43;21.63;;;16.52;;
14272;SDS011;7220;49.450;11.052;2023-03-01T20:59:44;23.33;;;17.70;;
14272;SDS011;7220;49.450;11.052;2023-03-01T21:03:44;27.90;;;18.13;;
14272;SDS011;7220;49.450;11.052;2023-03-01T21:07:44;24.75;;;17.65;;
14272;SDS011;7220;49.450;11.052;2023-03-01T21:11:47;27.10;;;18.63;;
14272;SDS011;7220;49.450;11.052;2023-03-01T21:15:55;23.92;;;17.77;;
14272;SDS011;7220;49.450;11.052;2023-03-01T21:20:12;22.38;;;17.55;;
14272;SDS011;7220;49.450;11.052;2023-03-01T21:24:12;26.17;;;18.05;;
14272;SDS011;7220;49.450;11.052;2023-03-01T21:28:13;25.80;;;16.65;;
14272;SDS011;7220;49.450;11.052;2023-03-01T21:32:13;25.15;;;18.00;;
14272;SDS011;7220;49.450;11.052;2023-03-01T21:36:14;22.38;;;17.35;;
14272;SDS011;7220;49.450;11.052;2023-03-01T21:40:15;28.83;;;18.85;;
14272;SDS011;7220;49.450;11.052;2023-03-01T21:44:15;31.42;;;21.63;;
14272;SDS011;7220;49.450;11.052;2023-03-01T21:48:15;34.05;;;22.17;;
14272;SDS011;7220;49.450;11.052;2023-03-01T21:52:16;31.25;;;20.92;;
14272;SDS011;7220;49.450;11.052;2023-03-01T21:56:20;28.43;;;18.93;;
14272;SDS011;7220;49.450;11.052;2023-03-01T22:00:24;22.33;;;17.58;;
14272;SDS011;7220;49.450;11.052;2023-03-01T22:04:27;27.08;;;18.67;;
14272;SDS011;7220;49.450;11.052;2023-03-01T22:08:27;27.75;;;18.23;;
14272;SDS011;7220;49.450;11.052;2023-03-01T22:12:28;26.23;;;18.90;;
14272;SDS011;7220;49.450;11.052;2023-03-01T22:16:29;24.33;;;17.58;;
14272;SDS011;7220;49.450;11.052;2023-03-01T22:20:31;24.83;;;18.13;;
14272;SDS011;7220;49.450;11.052;2023-03-01T22:24:31;26.27;;;17.75;;
14272;SDS011;7220;49.450;11.052;2023-03-01T22:28:32;22.08;;;17.02;;
14272;SDS011;7220;49.450;11.052;2023-03-01T22:32:32;31.38;;;20.92;;
14272;SDS011;7220;49.450;11.052;2023-03-01T22:36:33;38.50;;;23.80;;
14272;SDS011;7220;49.450;11.052;2023-03-01T22:40:34;41.78;;;24.92;;
14272;SDS011;7220;49.450;11.052;2023-03-01T22:44:34;34.40;;;21.98;;
14272;SDS011;7220;49.450;11.052;2023-03-01T22:48:34;29.83;;;20.75;;
14272;SDS011;7220;49.450;11.052;2023-03-01T22:52:35;24.13;;;18.75;;
14272;SDS011;7220;49.450;11.052;2023-03-01T22:56:35;27.80;;;19.00;;
14272;SDS011;7220;49.450;11.052;2023-03-01T23:00:37;23.20;;;16.20;;
14272;SDS011;7220;49.450;11.052;2023-03-01T23:04:37;27.70;;;17.13;;
14272;SDS011;7220;49.450;11.052;2023-03-01T23:08:37;25.27;;;17.25;;
14272;SDS011;7220;49.450;11.052;2023-03-01T23:12:38;23.65;;;16.80;;
14272;SDS011;7220;49.450;11.052;2023-03-01T23:16:38;25.20;;;17.52;;
14272;SDS011;7220;49.450;11.052;2023-03-01T23:20:38;22.13;;;16.15;;
14272;SDS011;7220;49.450;11.052;2023-03-01T23:24:38;23.80;;;16.97;;
14272;SDS011;7220;49.450;11.052;2023-03-01T23:28:39;24.38;;;17.58;;
14272;SDS011;7220;49.450;11.052;2023-03-01T23:32:39;23.45;;;16.70;;
14272;SDS011;7220;49.450;11.052;2023-03-01T23:36:40;23.88;;;17.08;;
14272;SDS011;7220;49.450;11.052;2023-03-01T23:40:43;25.00;;;17.83;;
14272;SDS011;7220;49.450;11.052;2023-03-01T23:44:44;24.00;;;16.83;;
14272;SDS011;7220;49.450;11.052;2023-03-01T23:48:44;25.60;;;17.00;;
14272;SDS011;7220;49.450;11.052;2023-03-01T23:52:45;23.75;;;16.33;;
14272;SDS011;7220;49.450;11.052;2023-03-01T23:56:45;24.05;;;17.02;;
